sensor_id;sensor_type;location;lat;lon;timestamp;pressure;altitude;pressure_sealevel;temperature;humidity
39789;BME280;25478;42.626;23.320;2023-02-26T00:00:12;91968.69;;;12.31;46.11
39789;BME280;25478;42.626;23.320;2023-02-26T00:02:43;91932.63;;;12.24;46.19
39789;BME280;25478;42.626;23.320;2023-02-26T00:05:14;91926.53;;;12.27;46.54
39789;BME280;25478;42.626;23.320;2023-02-26T00:07:41;91939.31;;;12.29;46.60
39789;BME280;25478;42.626;23.320;2023-02-26T00:10:09;91920.50;;;12.27;46.73
39789;BME280;25478;42.626;23.320;2023-02-26T00:12:35;91928.50;;;12.23;47.53
39789;BME280;25478;42.626;23.320;2023-02-26T00:15:02;91922.22;;;12.17;47.42
39789;BME280;25478;42.626;23.320;2023-02-26T00:17:47;91926.13;;;12.13;47.54
39789;BME280;25478;42.626;23.320;2023-02-26T00:20:16;91917.59;;;12.05;47.57
39789;BME280;25478;42.626;23.320;2023-02-26T00:22:42;91936.41;;;12.07;47.53
39789;BME280;25478;42.626;23.320;2023-02-26T00:25:09;91893.09;;;11.88;47.36
39789;BME280;25478;42.626;23.320;2023-02-26T00:27:35;91919.84;;;12.06;47.14
39789;BME280;25478;42.626;23.320;2023-02-26T00:30:03;91938.78;;;12.01;47.54
39789;BME280;25478;42.626;23.320;2023-02-26T00:32:29;91914.72;;;11.99;47.28
39789;BME280;25478;42.626;23.320;2023-02-26T00:34:56;91914.72;;;11.99;47.14
39789;BME280;25478;42.626;23.320;2023-02-26T00:42:46;91895.75;;;11.88;46.84
39789;BME280;25478;42.626;23.320;2023-02-26T00:45:12;91906.53;;;11.94;47.05
39789;BME280;25478;42.626;23.320;2023-02-26T00:55:13;91894.03;;;11.98;46.00
39789;BME280;25478;42.626;23.320;2023-02-26T00:57:39;91896.56;;;12.01;45.83
39789;BME280;25478;42.626;23.320;2023-02-26T01:00:05;91888.34;;;11.99;45.60
39789;BME280;25478;42.626;23.320;2023-02-26T01:02:34;91888.34;;;11.99;45.43
39789;BME280;25478;42.626;23.320;2023-02-26T01:05:00;91899.88;;;12.05;44.90
39789;BME280;25478;42.626;23.320;2023-02-26T01:07:26;91900.63;;;12.06;44.86
39789;BME280;25478;42.626;23.320;2023-02-26T01:09:52;91870.69;;;11.96;44.58
39789;BME280;25478;42.626;23.320;2023-02-26T01:12:18;91849.28;;;11.94;44.50
39789;BME280;25478;42.626;23.320;2023-02-26T01:14:44;91852.81;;;12.04;44.49
39789;BME280;25478;42.626;23.320;2023-02-26T01:17:22;91885.13;;;12.08;44.38
39789;BME280;25478;42.626;23.320;2023-02-26T01:22:22;91854.78;;;12.00;44.75
39789;BME280;25478;42.626;23.320;2023-02-26T01:24:58;91906.06;;;11.99;44.66
39789;BME280;25478;42.626;23.320;2023-02-26T01:27:26;91853.63;;;12.01;44.58
39789;BME280;25478;42.626;23.320;2023-02-26T01:29:52;91855.22;;;11.98;44.53
39789;BME280;25478;42.626;23.320;2023-02-26T01:35:12;91833.63;;;11.87;45.12
39789;BME280;25478;42.626;23.320;2023-02-26T01:37:49;91850.59;;;11.86;45.04
39789;BME280;25478;42.626;23.320;2023-02-26T01:42:51;91842.25;;;11.88;44.45
39789;BME280;25478;42.626;23.320;2023-02-26T01:45:43;91804.03;;;11.96;43.95
39789;BME280;25478;42.626;23.320;2023-02-26T01:48:30;91807.16;;;11.91;43.66
39789;BME280;25478;42.626;23.320;2023-02-26T01:50:58;91835.75;;;11.92;44.00
39789;BME280;25478;42.626;23.320;2023-02-26T01:53:25;91781.28;;;11.86;43.53
39789;BME280;25478;42.626;23.320;2023-02-26T01:56:03;91799.97;;;11.91;43.58
39789;BME280;25478;42.626;23.320;2023-02-26T01:58:33;91821.41;;;11.93;43.75
39789;BME280;25478;42.626;23.320;2023-02-26T02:01:00;91812.44;;;11.91;43.45
39789;BME280;25478;42.626;23.320;2023-02-26T02:03:27;91821.41;;;11.93;42.90
39789;BME280;25478;42.626;23.320;2023-02-26T02:06:01;91821.41;;;11.93;42.94
39789;BME280;25478;42.626;23.320;2023-02-26T02:08:31;91793.91;;;11.94;42.74
39789;BME280;25478;42.626;23.320;2023-02-26T02:11:00;91775.44;;;11.94;42.33
39789;BME280;25478;42.626;23.320;2023-02-26T02:13:39;91764.88;;;11.94;42.30
39789;BME280;25478;42.626;23.320;2023-02-26T02:16:17;91781.09;;;11.93;42.16
39789;BME280;25478;42.626;23.320;2023-02-26T02:27:06;91788.53;;;11.98;42.08
39789;BME280;25478;42.626;23.320;2023-02-26T02:29:58;91748.16;;;11.84;41.92
39789;BME280;25478;42.626;23.320;2023-02-26T02:35:12;91773.19;;;11.93;42.08
39789;BME280;25478;42.626;23.320;2023-02-26T02:37:45;91792.41;;;11.93;41.99
39789;BME280;25478;42.626;23.320;2023-02-26T02:40:14;91803.28;;;11.95;41.88
39789;BME280;25478;42.626;23.320;2023-02-26T02:43:02;91816.53;;;11.92;42.00
39789;BME280;25478;42.626;23.320;2023-02-26T02:45:34;91796.59;;;11.91;41.54
39789;BME280;25478;42.626;23.320;2023-02-26T02:48:23;91821.06;;;11.91;41.86
39789;BME280;25478;42.626;23.320;2023-02-26T02:50:55;91805.09;;;11.82;42.01
39789;BME280;25478;42.626;23.320;2023-02-26T02:53:29;91808.72;;;11.88;42.10
39789;BME280;25478;42.626;23.320;2023-02-26T02:56:12;91818.03;;;11.93;41.86
39789;BME280;25478;42.626;23.320;2023-02-26T02:58:43;91814.41;;;11.87;41.56
39789;BME280;25478;42.626;23.320;2023-02-26T03:01:15;91839.94;;;11.90;42.04
39789;BME280;25478;42.626;23.320;2023-02-26T03:03:50;91805.25;;;11.91;41.74
39789;BME280;25478;42.626;23.320;2023-02-26T03:06:18;91776.88;;;11.63;41.58
39789;BME280;25478;42.626;23.320;2023-02-26T03:08:43;91811.03;;;11.86;41.46
39789;BME280;25478;42.626;23.320;2023-02-26T03:11:11;91801.13;;;11.90;41.25
39789;BME280;25478;42.626;23.320;2023-02-26T03:13:37;91813.16;;;11.91;40.86
39789;BME280;25478;42.626;23.320;2023-02-26T03:22:02;91802.88;;;11.97;40.81
39789;BME280;25478;42.626;23.320;2023-02-26T03:24:56;91813.91;;;11.92;40.95
39789;BME280;25478;42.626;23.320;2023-02-26T03:27:31;91801.56;;;11.89;41.24
39789;BME280;25478;42.626;23.320;2023-02-26T03:35:37;91802.88;;;11.80;41.45
39789;BME280;25478;42.626;23.320;2023-02-26T03:38:12;91796.84;;;11.80;41.54
39789;BME280;25478;42.626;23.320;2023-02-26T03:40:48;91801.38;;;11.79;41.45
39789;BME280;25478;42.626;23.320;2023-02-26T03:43:25;91795.69;;;11.81;41.42
39789;BME280;25478;42.626;23.320;2023-02-26T03:45:53;91799.81;;;11.82;41.38
39789;BME280;25478;42.626;23.320;2023-02-26T03:48:23;91778.63;;;11.69;41.57
39789;BME280;25478;42.626;23.320;2023-02-26T03:50:53;91799.41;;;11.83;41.17
39789;BME280;25478;42.626;23.320;2023-02-26T03:54:04;91796.84;;;11.80;41.49
39789;BME280;25478;42.626;23.320;2023-02-26T03:56:42;91793.88;;;11.78;41.61
39789;BME280;25478;42.626;23.320;2023-02-26T03:59:27;91817.94;;;11.80;41.41
39789;BME280;25478;42.626;23.320;2023-02-26T04:02:21;91817.97;;;11.76;41.64
39789;BME280;25478;42.626;23.320;2023-02-26T04:05:22;91789.72;;;11.77;41.67
39789;BME280;25478;42.626;23.320;2023-02-26T04:07:49;91790.13;;;11.75;41.49
39789;BME280;25478;42.626;23.320;2023-02-26T04:10:18;91781.81;;;11.77;41.31
39789;BME280;25478;42.626;23.320;2023-02-26T04:12:46;91770.38;;;11.67;41.19
39789;BME280;25478;42.626;23.320;2023-02-26T04:15:12;91781.78;;;11.80;41.41
39789;BME280;25478;42.626;23.320;2023-02-26T04:17:39;91779.13;;;11.80;41.19
39789;BME280;25478;42.626;23.320;2023-02-26T04:20:06;91772.72;;;11.81;41.04
39789;BME280;25478;42.626;23.320;2023-02-26T04:22:35;91765.13;;;11.83;40.98
39789;BME280;25478;42.626;23.320;2023-02-26T04:25:01;91752.44;;;11.78;40.55
39789;BME280;25478;42.626;23.320;2023-02-26T04:27:27;91753.66;;;11.90;40.50
39789;BME280;25478;42.626;23.320;2023-02-26T04:29:53;91766.94;;;11.87;40.57
39789;BME280;25478;42.626;23.320;2023-02-26T04:32:19;91721.19;;;11.77;40.55
39789;BME280;25478;42.626;23.320;2023-02-26T04:34:45;91737.53;;;11.88;40.14
39789;BME280;25478;42.626;23.320;2023-02-26T04:37:10;91749.25;;;11.87;40.09
39789;BME280;25478;42.626;23.320;2023-02-26T04:39:36;91752.19;;;11.89;39.99
39789;BME280;25478;42.626;23.320;2023-02-26T04:42:02;91741.53;;;11.93;40.08
39789;BME280;25478;42.626;23.320;2023-02-26T04:44:29;91718.81;;;11.82;39.67
39789;BME280;25478;42.626;23.320;2023-02-26T04:46:56;91734.06;;;11.91;39.49
39789;BME280;25478;42.626;23.320;2023-02-26T04:49:22;91726.81;;;11.95;39.39
39789;BME280;25478;42.626;23.320;2023-02-26T04:51:47;91755.66;;;12.02;39.08
39789;BME280;25478;42.626;23.320;2023-02-26T04:54:14;91729.09;;;12.09;39.01
39789;BME280;25478;42.626;23.320;2023-02-26T04:56:40;91721.91;;;12.10;38.69
39789;BME280;25478;42.626;23.320;2023-02-26T04:59:06;91723.00;;;12.13;38.71
39789;BME280;25478;42.626;23.320;2023-02-26T05:01:33;91715.91;;;12.09;38.88
39789;BME280;25478;42.626;23.320;2023-02-26T05:03:58;91684.59;;;12.11;38.53
39789;BME280;25478;42.626;23.320;2023-02-26T05:06:24;91690.81;;;12.18;38.14
39789;BME280;25478;42.626;23.320;2023-02-26T05:08:50;91686.63;;;12.20;38.30
39789;BME280;25478;42.626;23.320;2023-02-26T05:11:17;91727.69;;;12.21;38.05
39789;BME280;25478;42.626;23.320;2023-02-26T05:13:42;91698.97;;;12.23;38.08
39789;BME280;25478;42.626;23.320;2023-02-26T05:16:08;91699.38;;;12.22;38.04
39789;BME280;25478;42.626;23.320;2023-02-26T05:18:34;91689.47;;;12.26;37.91
39789;BME280;25478;42.626;23.320;2023-02-26T05:21:00;91682.22;;;12.30;37.81
39789;BME280;25478;42.626;23.320;2023-02-26T05:23:26;91701.59;;;12.23;38.02
39789;BME280;25478;42.626;23.320;2023-02-26T05:25:54;91693.75;;;12.36;37.78
39789;BME280;25478;42.626;23.320;2023-02-26T05:28:21;91674.75;;;12.41;37.88
39789;BME280;25478;42.626;23.320;2023-02-26T05:30:46;91684.47;;;12.44;37.65
39789;BME280;25478;42.626;23.320;2023-02-26T05:33:12;91686.28;;;12.47;37.77
39789;BME280;25478;42.626;23.320;2023-02-26T05:35:38;91675.63;;;12.51;37.44
39789;BME280;25478;42.626;23.320;2023-02-26T05:38:03;91680.56;;;12.49;38.03
39789;BME280;25478;42.626;23.320;2023-02-26T05:40:29;91680.06;;;12.54;37.65
39789;BME280;25478;42.626;23.320;2023-02-26T05:42:55;91647.97;;;12.55;37.38
39789;BME280;25478;42.626;23.320;2023-02-26T05:45:21;91665.59;;;12.58;37.50
39789;BME280;25478;42.626;23.320;2023-02-26T05:47:46;91661.28;;;12.64;37.20
39789;BME280;25478;42.626;23.320;2023-02-26T05:50:12;91654.09;;;12.65;37.28
39789;BME280;25478;42.626;23.320;2023-02-26T05:52:37;91676.28;;;12.67;37.43
39789;BME280;25478;42.626;23.320;2023-02-26T05:55:03;91675.84;;;12.69;37.41
39789;BME280;25478;42.626;23.320;2023-02-26T05:57:29;91709.03;;;12.70;37.15
39789;BME280;25478;42.626;23.320;2023-02-26T05:59:55;91694.25;;;12.73;36.84
39789;BME280;25478;42.626;23.320;2023-02-26T06:02:20;91668.47;;;12.77;36.87
39789;BME280;25478;42.626;23.320;2023-02-26T06:04:46;91672.94;;;12.80;36.88
39789;BME280;25478;42.626;23.320;2023-02-26T06:07:11;91679.25;;;12.82;36.62
39789;BME280;25478;42.626;23.320;2023-02-26T06:09:37;91678.00;;;12.87;36.78
39789;BME280;25478;42.626;23.320;2023-02-26T06:12:03;91683.59;;;12.89;36.69
39789;BME280;25478;42.626;23.320;2023-02-26T06:14:29;91691.41;;;12.92;36.68
39789;BME280;25478;42.626;23.320;2023-02-26T06:16:54;91698.53;;;12.95;36.46
39789;BME280;25478;42.626;23.320;2023-02-26T06:19:20;91685.31;;;12.95;36.49
39789;BME280;25478;42.626;23.320;2023-02-26T06:21:46;91687.84;;;13.12;35.86
39789;BME280;25478;42.626;23.320;2023-02-26T06:24:11;91690.28;;;13.06;35.79
39789;BME280;25478;42.626;23.320;2023-02-26T06:26:37;91691.16;;;13.29;35.76
39789;BME280;25478;42.626;23.320;2023-02-26T06:29:03;91680.34;;;13.36;35.39
39789;BME280;25478;42.626;23.320;2023-02-26T06:31:28;91661.75;;;13.39;35.23
39789;BME280;25478;42.626;23.320;2023-02-26T06:33:54;91679.19;;;13.49;35.21
39789;BME280;25478;42.626;23.320;2023-02-26T06:36:19;91676.53;;;13.62;35.31
39789;BME280;25478;42.626;23.320;2023-02-26T06:38:45;91711.22;;;13.64;34.99
39789;BME280;25478;42.626;23.320;2023-02-26T06:41:11;91686.03;;;13.72;34.71
39789;BME280;25478;42.626;23.320;2023-02-26T06:43:36;91681.06;;;13.74;34.37
39789;BME280;25478;42.626;23.320;2023-02-26T06:46:02;91675.88;;;13.71;34.43
39789;BME280;25478;42.626;23.320;2023-02-26T06:48:28;91703.91;;;13.81;34.25
39789;BME280;25478;42.626;23.320;2023-02-26T06:50:53;91683.25;;;13.89;34.33
39789;BME280;25478;42.626;23.320;2023-02-26T06:53:19;91708.72;;;13.95;33.68
39789;BME280;25478;42.626;23.320;2023-02-26T06:55:46;91688.31;;;13.96;34.03
39789;BME280;25478;42.626;23.320;2023-02-26T06:58:12;91679.88;;;13.88;33.84
39789;BME280;25478;42.626;23.320;2023-02-26T07:00:38;91676.94;;;14.08;34.03
39789;BME280;25478;42.626;23.320;2023-02-26T07:03:05;91682.44;;;14.14;33.74
39789;BME280;25478;42.626;23.320;2023-02-26T07:05:30;91677.06;;;14.26;33.40
39789;BME280;25478;42.626;23.320;2023-02-26T07:07:56;91665.94;;;14.31;33.40
39789;BME280;25478;42.626;23.320;2023-02-26T07:10:21;91682.00;;;14.37;33.54
39789;BME280;25478;42.626;23.320;2023-02-26T07:12:49;91658.28;;;14.46;33.26
39789;BME280;25478;42.626;23.320;2023-02-26T07:15:15;91640.84;;;14.58;32.92
39789;BME280;25478;42.626;23.320;2023-02-26T07:17:41;91674.56;;;14.67;33.13
39789;BME280;25478;42.626;23.320;2023-02-26T07:20:08;91658.44;;;14.74;32.95
39789;BME280;25478;42.626;23.320;2023-02-26T07:22:36;91674.06;;;14.81;32.91
39789;BME280;25478;42.626;23.320;2023-02-26T07:25:03;91688.22;;;14.87;32.41
39789;BME280;25478;42.626;23.320;2023-02-26T07:27:29;91661.19;;;14.92;32.41
39789;BME280;25478;42.626;23.320;2023-02-26T07:29:56;91670.34;;;15.00;32.36
39789;BME280;25478;42.626;23.320;2023-02-26T07:32:21;91654.00;;;15.02;32.37
39789;BME280;25478;42.626;23.320;2023-02-26T07:34:47;91678.16;;;15.04;32.18
39789;BME280;25478;42.626;23.320;2023-02-26T07:37:13;91674.19;;;15.08;32.24
39789;BME280;25478;42.626;23.320;2023-02-26T07:39:38;91675.28;;;15.20;32.35
39789;BME280;25478;42.626;23.320;2023-02-26T07:42:04;91700.34;;;15.28;32.19
39789;BME280;25478;42.626;23.320;2023-02-26T07:44:30;91701.13;;;15.38;31.74
39789;BME280;25478;42.626;23.320;2023-02-26T07:46:55;91691.38;;;15.35;31.66
39789;BME280;25478;42.626;23.320;2023-02-26T07:49:21;91701.59;;;15.55;31.15
39789;BME280;25478;42.626;23.320;2023-02-26T07:51:47;91683.97;;;15.61;30.87
39789;BME280;25478;42.626;23.320;2023-02-26T07:54:13;91715.69;;;15.64;31.10
39789;BME280;25478;42.626;23.320;2023-02-26T07:56:39;91673.53;;;15.66;31.04
39789;BME280;25478;42.626;23.320;2023-02-26T07:59:05;91683.44;;;15.75;30.98
39789;BME280;25478;42.626;23.320;2023-02-26T08:01:31;91633.31;;;15.86;30.76
39789;BME280;25478;42.626;23.320;2023-02-26T08:03:57;91688.31;;;15.95;30.44
39789;BME280;25478;42.626;23.320;2023-02-26T08:06:22;91699.84;;;16.01;30.58
39789;BME280;25478;42.626;23.320;2023-02-26T08:08:48;91707.81;;;16.10;30.28
39789;BME280;25478;42.626;23.320;2023-02-26T08:11:13;91703.84;;;16.15;29.94
39789;BME280;25478;42.626;23.320;2023-02-26T08:13:39;91677.25;;;16.05;29.83
39789;BME280;25478;42.626;23.320;2023-02-26T08:16:04;91674.03;;;16.11;29.94
39789;BME280;25478;42.626;23.320;2023-02-26T08:18:29;91663.72;;;16.03;30.23
39789;BME280;25478;42.626;23.320;2023-02-26T08:20:55;91693.78;;;16.00;30.04
39789;BME280;25478;42.626;23.320;2023-02-26T08:23:20;91656.91;;;15.93;30.23
39789;BME280;25478;42.626;23.320;2023-02-26T08:25:46;91699.66;;;15.95;30.17
39789;BME280;25478;42.626;23.320;2023-02-26T08:28:13;91705.72;;;15.96;30.34
39789;BME280;25478;42.626;23.320;2023-02-26T08:30:38;91719.44;;;15.94;30.12
39789;BME280;25478;42.626;23.320;2023-02-26T08:33:04;91675.34;;;15.88;29.74
39789;BME280;25478;42.626;23.320;2023-02-26T08:35:30;91722.69;;;15.89;30.14
39789;BME280;25478;42.626;23.320;2023-02-26T08:37:55;91736.81;;;15.86;30.09
39789;BME280;25478;42.626;23.320;2023-02-26T08:40:21;91712.94;;;15.86;30.09
39789;BME280;25478;42.626;23.320;2023-02-26T08:42:47;91714.41;;;15.87;29.79
39789;BME280;25478;42.626;23.320;2023-02-26T08:45:13;91704.97;;;15.86;30.23
39789;BME280;25478;42.626;23.320;2023-02-26T08:47:38;91713.94;;;15.89;30.32
39789;BME280;25478;42.626;23.320;2023-02-26T08:50:06;91714.28;;;15.91;30.02
39789;BME280;25478;42.626;23.320;2023-02-26T08:52:32;91731.97;;;15.94;29.91
39789;BME280;25478;42.626;23.320;2023-02-26T08:54:58;91723.84;;;15.88;29.74
39789;BME280;25478;42.626;23.320;2023-02-26T08:57:25;91722.81;;;15.95;29.55
39789;BME280;25478;42.626;23.320;2023-02-26T08:59:50;91739.34;;;15.99;29.50
39789;BME280;25478;42.626;23.320;2023-02-26T09:02:16;91717.97;;;16.02;29.57
39789;BME280;25478;42.626;23.320;2023-02-26T09:04:41;91731.13;;;16.06;29.33
39789;BME280;25478;42.626;23.320;2023-02-26T09:07:07;91718.13;;;16.08;29.43
39789;BME280;25478;42.626;23.320;2023-02-26T09:09:32;91753.41;;;16.27;29.67
39789;BME280;25478;42.626;23.320;2023-02-26T09:11:58;91720.22;;;16.41;28.84
39789;BME280;25478;42.626;23.320;2023-02-26T09:14:23;91741.47;;;16.50;28.55
39789;BME280;25478;42.626;23.320;2023-02-26T09:16:49;91746.91;;;16.65;28.87
39789;BME280;25478;42.626;23.320;2023-02-26T09:19:15;91724.97;;;16.82;28.40
39789;BME280;25478;42.626;23.320;2023-02-26T09:21:41;91731.00;;;16.92;27.88
39789;BME280;25478;42.626;23.320;2023-02-26T09:24:07;91750.59;;;17.04;28.06
39789;BME280;25478;42.626;23.320;2023-02-26T09:26:32;91738.00;;;17.23;27.49
39789;BME280;25478;42.626;23.320;2023-02-26T09:28:57;91739.63;;;17.29;27.85
39789;BME280;25478;42.626;23.320;2023-02-26T09:31:23;91753.31;;;17.46;27.66
39789;BME280;25478;42.626;23.320;2023-02-26T09:33:48;91742.91;;;17.66;27.24
39789;BME280;25478;42.626;23.320;2023-02-26T09:36:14;91747.56;;;17.81;27.26
39789;BME280;25478;42.626;23.320;2023-02-26T09:38:39;91725.97;;;17.88;26.94
39789;BME280;25478;42.626;23.320;2023-02-26T09:41:09;91757.81;;;18.06;26.79
39789;BME280;25478;42.626;23.320;2023-02-26T09:51:51;91736.44;;;18.15;26.46
39789;BME280;25478;42.626;23.320;2023-02-26T09:54:23;91752.75;;;18.32;26.35
39789;BME280;25478;42.626;23.320;2023-02-26T09:56:50;91764.94;;;18.24;26.33
39789;BME280;25478;42.626;23.320;2023-02-26T09:59:17;91767.72;;;18.29;26.75
39789;BME280;25478;42.626;23.320;2023-02-26T10:02:01;91737.97;;;18.31;26.33
39789;BME280;25478;42.626;23.320;2023-02-26T10:10:32;91699.81;;;18.10;27.26
39789;BME280;25478;42.626;23.320;2023-02-26T10:12:59;91719.84;;;18.20;27.01
39789;BME280;25478;42.626;23.320;2023-02-26T10:15:29;91713.22;;;18.16;26.96
39789;BME280;25478;42.626;23.320;2023-02-26T10:18:23;91692.16;;;18.03;27.02
39789;BME280;25478;42.626;23.320;2023-02-26T10:21:08;91702.53;;;18.01;27.16
39789;BME280;25478;42.626;23.320;2023-02-26T10:24:01;91730.16;;;18.04;27.37
39789;BME280;25478;42.626;23.320;2023-02-26T10:26:32;91723.88;;;17.92;27.25
39789;BME280;25478;42.626;23.320;2023-02-26T10:34:12;91707.56;;;17.66;27.09
39789;BME280;25478;42.626;23.320;2023-02-26T10:39:27;91671.78;;;17.34;27.34
39789;BME280;25478;42.626;23.320;2023-02-26T10:41:55;91687.19;;;17.21;27.27
39789;BME280;25478;42.626;23.320;2023-02-26T10:44:33;91679.72;;;17.01;27.93
39789;BME280;25478;42.626;23.320;2023-02-26T10:50:01;91662.78;;;16.61;27.87
39789;BME280;25478;42.626;23.320;2023-02-26T10:52:31;91658.97;;;16.53;28.74
39789;BME280;25478;42.626;23.320;2023-02-26T10:57:33;91659.84;;;16.59;28.94
39789;BME280;25478;42.626;23.320;2023-02-26T11:00:04;91674.59;;;16.60;28.97
39789;BME280;25478;42.626;23.320;2023-02-26T11:02:34;91704.00;;;16.57;29.62
39789;BME280;25478;42.626;23.320;2023-02-26T11:05:02;91692.75;;;16.53;29.92
39789;BME280;25478;42.626;23.320;2023-02-26T11:07:30;91690.13;;;16.44;29.94
39789;BME280;25478;42.626;23.320;2023-02-26T11:09:57;91678.91;;;16.21;29.95
39789;BME280;25478;42.626;23.320;2023-02-26T11:12:24;91698.53;;;16.33;29.90
39789;BME280;25478;42.626;23.320;2023-02-26T11:14:49;91694.09;;;16.30;29.73
39789;BME280;25478;42.626;23.320;2023-02-26T11:17:21;91687.31;;;16.29;29.53
39789;BME280;25478;42.626;23.320;2023-02-26T11:19:58;91662.22;;;16.30;29.64
39789;BME280;25478;42.626;23.320;2023-02-26T11:22:28;91665.50;;;16.25;30.12
39789;BME280;25478;42.626;23.320;2023-02-26T11:24:56;91658.25;;;16.16;30.02
39789;BME280;25478;42.626;23.320;2023-02-26T11:27:26;91661.06;;;16.13;30.12
39789;BME280;25478;42.626;23.320;2023-02-26T11:30:02;91702.50;;;16.10;30.44
39789;BME280;25478;42.626;23.320;2023-02-26T11:32:36;91661.22;;;16.09;30.76
39789;BME280;25478;42.626;23.320;2023-02-26T11:35:06;91683.34;;;16.06;31.32
39789;BME280;25478;42.626;23.320;2023-02-26T11:37:35;91663.13;;;15.99;31.83
39789;BME280;25478;42.626;23.320;2023-02-26T11:42:47;91687.88;;;15.96;31.97
39789;BME280;25478;42.626;23.320;2023-02-26T11:45:16;91663.13;;;15.90;32.24
39789;BME280;25478;42.626;23.320;2023-02-26T11:47:42;91684.47;;;15.87;32.59
39789;BME280;25478;42.626;23.320;2023-02-26T11:50:15;91726.19;;;15.86;32.83
39789;BME280;25478;42.626;23.320;2023-02-26T11:52:44;91690.22;;;15.76;32.96
39789;BME280;25478;42.626;23.320;2023-02-26T11:55:21;91737.34;;;15.72;33.50
39789;BME280;25478;42.626;23.320;2023-02-26T11:57:52;91727.78;;;15.65;33.93
39789;BME280;25478;42.626;23.320;2023-02-26T12:00:25;91728.94;;;15.64;34.32
39789;BME280;25478;42.626;23.320;2023-02-26T12:02:59;91697.63;;;15.50;34.61
39789;BME280;25478;42.626;23.320;2023-02-26T12:05:28;91726.88;;;15.68;34.31
39789;BME280;25478;42.626;23.320;2023-02-26T12:07:55;91728.38;;;15.69;34.08
39789;BME280;25478;42.626;23.320;2023-02-26T12:10:25;91732.94;;;15.69;34.63
39789;BME280;25478;42.626;23.320;2023-02-26T12:16:04;91735.13;;;15.70;34.08
39789;BME280;25478;42.626;23.320;2023-02-26T12:18:34;91726.88;;;15.68;34.56
39789;BME280;25478;42.626;23.320;2023-02-26T12:27:23;91773.22;;;15.55;36.74
39789;BME280;25478;42.626;23.320;2023-02-26T12:29:56;91752.69;;;15.46;37.39
39789;BME280;25478;42.626;23.320;2023-02-26T12:32:39;91783.31;;;15.38;37.52
39789;BME280;25478;42.626;23.320;2023-02-26T12:35:56;91804.53;;;15.38;38.05
39789;BME280;25478;42.626;23.320;2023-02-26T12:38:23;91811.50;;;15.44;37.36
39789;BME280;25478;42.626;23.320;2023-02-26T12:43:51;91835.84;;;15.74;37.11
39789;BME280;25478;42.626;23.320;2023-02-26T12:46:45;91834.66;;;15.75;36.75
39789;BME280;25478;42.626;23.320;2023-02-26T12:55:19;91848.88;;;15.90;36.15
39789;BME280;25478;42.626;23.320;2023-02-26T13:03:20;91843.25;;;15.88;35.34
39789;BME280;25478;42.626;23.320;2023-02-26T13:05:59;91853.75;;;15.92;35.33
39789;BME280;25478;42.626;23.320;2023-02-26T13:08:45;91856.25;;;15.95;35.46
39789;BME280;25478;42.626;23.320;2023-02-26T13:11:23;91852.56;;;15.93;35.89
39789;BME280;25478;42.626;23.320;2023-02-26T13:17:35;91848.09;;;15.81;35.80
39789;BME280;25478;42.626;23.320;2023-02-26T13:19:54;91858.09;;;15.76;35.50
39789;BME280;25478;42.626;23.320;2023-02-26T13:22:34;91858.53;;;15.75;35.70
39789;BME280;25478;42.626;23.320;2023-02-26T13:25:20;91852.25;;;15.82;35.46
39789;BME280;25478;42.626;23.320;2023-02-26T13:27:49;91836.19;;;15.94;35.00
39789;BME280;25478;42.626;23.320;2023-02-26T13:32:56;91829.97;;;16.28;34.51
39789;BME280;25478;42.626;23.320;2023-02-26T13:35:34;91830.00;;;16.47;34.37
39789;BME280;25478;42.626;23.320;2023-02-26T13:38:13;91830.44;;;16.54;34.41
39789;BME280;25478;42.626;23.320;2023-02-26T13:40:56;91833.31;;;16.69;34.38
39789;BME280;25478;42.626;23.320;2023-02-26T13:49:08;91785.44;;;16.60;34.04
39789;BME280;25478;42.626;23.320;2023-02-26T13:51:43;91817.59;;;16.44;34.24
39789;BME280;25478;42.626;23.320;2023-02-26T14:01:56;91767.00;;;15.80;35.47
39789;BME280;25478;42.626;23.320;2023-02-26T14:04:27;91753.63;;;15.83;34.83
39789;BME280;25478;42.626;23.320;2023-02-26T14:06:59;91782.91;;;15.80;33.97
39789;BME280;25478;42.626;23.320;2023-02-26T14:09:34;91795.78;;;15.81;32.97
39789;BME280;25478;42.626;23.320;2023-02-26T14:22:41;91796.84;;;15.93;32.66
39789;BME280;25478;42.626;23.320;2023-02-26T14:27:38;91812.28;;;15.85;32.86
39789;BME280;25478;42.626;23.320;2023-02-26T14:30:28;91811.97;;;15.74;32.79
39789;BME280;25478;42.626;23.320;2023-02-26T14:33:07;91814.13;;;15.66;33.21
39789;BME280;25478;42.626;23.320;2023-02-26T14:35:39;91825.19;;;15.65;32.69
39789;BME280;25478;42.626;23.320;2023-02-26T14:38:11;91819.38;;;15.57;33.05
39789;BME280;25478;42.626;23.320;2023-02-26T14:40:45;91833.63;;;15.51;33.34
39789;BME280;25478;42.626;23.320;2023-02-26T14:43:17;91837.50;;;15.37;33.71
39789;BME280;25478;42.626;23.320;2023-02-26T14:45:45;91839.72;;;15.38;33.93
39789;BME280;25478;42.626;23.320;2023-02-26T14:48:21;91842.53;;;15.35;34.03
39789;BME280;25478;42.626;23.320;2023-02-26T15:05:43;91855.91;;;15.09;34.92
39789;BME280;25478;42.626;23.320;2023-02-26T15:13:37;91872.59;;;14.97;35.48
39789;BME280;25478;42.626;23.320;2023-02-26T15:24:12;91891.53;;;14.74;36.83
39789;BME280;25478;42.626;23.320;2023-02-26T15:26:49;91905.22;;;14.72;36.93
39789;BME280;25478;42.626;23.320;2023-02-26T15:29:16;91888.06;;;14.64;37.26
39789;BME280;25478;42.626;23.320;2023-02-26T15:31:48;91862.47;;;14.48;36.90
39789;BME280;25478;42.626;23.320;2023-02-26T15:34:18;91899.19;;;14.59;37.19
39789;BME280;25478;42.626;23.320;2023-02-26T15:36:45;91908.00;;;14.56;37.54
39789;BME280;25478;42.626;23.320;2023-02-26T15:39:14;91881.28;;;14.37;37.20
39789;BME280;25478;42.626;23.320;2023-02-26T15:41:40;91891.16;;;14.50;37.63